• Join FlightAware (Why Join?)
  • Login
  • US Flag 
06:12PM EST


 

Airport Tracker/Info


-or-


 

Live Flight TrackerFlight Track Log ✈ JBU672 ✈ 05-Apr-2014 ✈ KFLL - KLGA

Flight Track Log - Related Links

Times and Time Zones

All times are in EDT time to prevent confusion due to time zone crossing. See the JBU672 flight status page for this flight to view local times or setup timezone preferences in your user account.

Time Position Orientation Groundspeed Altitude Reporting Facility
EDT Latitude Longitude Course Direction KTS MPH feet Rate Location/Type
06:49PM 26.0750 -80.1367 56° Northeast 136 157 900  Level Miami Center
06:49PM 26.0800 -80.0997 81° East 175 201 2,000 1,817 Climbing Miami Center
06:50PM 26.0903 -80.0144 82° East 227 261 4,200 2,667 Climbing Miami Center
06:51PM 26.1211 -79.9389 66° East 252 290 7,600 3,000 Climbing Miami Center
06:52PM 26.2074 -79.7210 56° Northeast  Level FlightAware Approximate
06:52PM 26.1519 -79.8542 68° East 269 310 10,200  Level Miami Center
06:53PM 26.2724 -79.6247 53° Northeast  Level FlightAware Approximate
06:53PM 26.1936 -79.7625 63° Northeast 303 349 11,500  Level Miami Center
06:54PM 26.3348 -79.5254 56° Northeast  Level FlightAware Approximate
06:54PM 26.2558 -79.6692 53° Northeast 339 390 14,000  Level Miami Center
06:56PM 26.3183 -79.5708 55° Northeast 377 434 16,000 1,850 Climbing Miami Center
06:56PM 26.4008 -79.5125 32° Northeast 382 440 17,700 1,714 Climbing Miami Center
06:57PM 26.5147 -79.4500 26° Northeast 401 461 19,400 1,600 Climbing Miami Center
06:58PM 26.6139 -79.3942 27° Northeast 419 482 20,900 2,100 Climbing Miami Center
06:59PM 26.7067 -79.3450 25° Northeast 424 488 23,600 2,200 Climbing Miami Center
07:00PM 26.8292 -79.2731 28° Northeast 419 482 25,300 1,500 Climbing Miami Center
07:01PM 26.9386 -79.2194 24° Northeast 414 476 26,600 1,400 Climbing Miami Center
07:02PM 27.0419 -79.1561 29° Northeast 414 476 28,100 1,350 Climbing Miami Center
07:03PM 27.1389 -79.0997 27° Northeast 424 488 29,300 1,150 Climbing Miami Center
07:04PM 27.2589 -79.0367 25° Northeast 424 488 30,400 1,400 Climbing Miami Center
07:05PM 27.3719 -79.0153 10° North 418 481 32,100 1,289 Climbing Miami Center
07:07PM 27.4850 -79.0011 North 412 474 33,000 450 Climbing Miami Center
07:07PM 27.5750 -78.9864 North 404 465 33,000  Level Miami Center
07:09PM 27.7089 -78.9678 North 404 465 33,000  Level Miami Center
07:09PM 27.8197 -78.9511 North 404 465 33,000  Level Miami Center
07:10PM 27.9203 -78.9364 North 404 465 33,000  Level Miami Center
07:11PM 28.0311 -78.9197 North 404 465 33,000  Level Miami Center
07:12PM 28.1419 -78.9028 North 404 465 33,000  Level Miami Center
07:14PM 28.2550 -78.8858 North 404 465 33,000  Level Miami Center
07:14PM 28.3658 -78.8714 North 404 465 33,000 -50 Level Miami Center
07:15PM 28.4747 -78.8544 North 398 458 32,900  Descending Miami Center
07:16PM 28.5856 -78.8375 North 398 458 33,000 50 Climbing Miami Center
07:17PM 28.6942 -78.8183 North 398 458 33,000  Level Miami Center
07:18PM 28.8050 -78.8036 North 398 458 33,000  Level Miami Center
07:19PM 28.9200 -78.7867 North 405 466 33,000  Level Miami Center
07:20PM 29.0308 -78.7647 10° North 411 473 33,000  Level Miami Center
07:21PM 29.1500 -78.7503 North 411 473 33,000 -50 Level Miami Center
07:22PM 29.2631 -78.7331 North 411 473 32,900 -50 Descending Miami Center
07:23PM 29.3736 -78.7136 North 411 473 32,900  Level Miami Center
07:24PM 29.4886 -78.6942 North 416 479 32,900 34 Level Miami Center
07:26PM 29.7181 -78.6553 North 434 499 33,000 34 Climbing Jacksonville Center
07:27PM 29.8283 -78.6408 North 433 498 33,000  Level Jacksonville Center
07:28PM 29.9525 -78.6139 11° North 428 493 33,000  Level Jacksonville Center
07:29PM 30.0689 -78.5967 North 423 487 33,000  Level Jacksonville Center
07:30PM 30.1894 -78.5794 North 417 480 33,000 -50 Level Jacksonville Center
07:31PM 30.2994 -78.5625 North 418 481 32,900 -50 Descending Jacksonville Center
07:32PM 30.4136 -78.5403 10° North 421 484 32,900 50 Level Jacksonville Center
07:33PM 30.5319 -78.5231 North 423 487 33,000 50 Climbing Jacksonville Center
07:34PM 30.6481 -78.5031 North 426 490 33,000  Level Jacksonville Center
07:35PM 30.7683 -78.4831 North 419 482 33,000  Level Jacksonville Center
07:36PM 30.8825 -78.4631 North 415 478 33,000 400 Level Jacksonville Center
07:37PM 31.0011 -78.4478 North 421 484 33,800 1,000 Climbing Jacksonville Center
07:38PM 31.1067 -78.4258 10° North 426 490 35,000 600 Climbing Jacksonville Center
07:39PM 31.2189 -78.4108 North 410 472 35,000  Level Jacksonville Center
07:40PM 31.3269 -78.3961 North 404 465 35,000  Level Jacksonville Center
07:41PM 31.4411 -78.3758 North 409 471 35,000  Level Jacksonville Center
07:42PM 31.5531 -78.3583 North 404 465 35,000  Level Jacksonville Center
07:43PM 31.6692 -78.3356 North 404 465 35,000  Level Jacksonville Center
07:44PM 31.7833 -78.3178 North 409 471 35,000  Level Jacksonville Center
07:45PM 31.8953 -78.3000 North 409 471 35,000  Level Jacksonville Center
07:46PM 32.0094 -78.2819 North 409 471 35,000  Level Jacksonville Center
07:47PM 32.1217 -78.2639 North 404 465 35,000  Level Jacksonville Center
07:48PM 32.2458 -78.2333 12° North 404 465 35,000  Level Jacksonville Center
07:49PM 32.3597 -78.2128 North 403 464 35,000  Level Jacksonville Center
07:50PM 32.4719 -78.1969 North 408 470 35,000 -50 Level Jacksonville Center
07:51PM 32.5861 -78.1811 North 408 470 34,900  Descending Jacksonville Center
07:52PM 32.6981 -78.1606 North 403 464 35,000 50 Climbing Jacksonville Center
07:53PM 32.8119 -78.1372 10° North 403 464 35,000  Level Jacksonville Center
07:54PM 32.9261 -78.1189 North 403 464 35,000  Level Jacksonville Center
07:57PM 33.1969 -78.0753 North 423 487 35,000  Level Washington Center
07:58PM 33.3100 -78.0564 North 418 481 35,000  Level Washington Center
07:59PM 33.4250 -78.0375 North 418 481 35,000  Level Washington Center
08:00PM 33.5422 -78.0158 North 413 475 35,000  Level Washington Center
08:01PM 33.6575 -77.9967 North 413 475 35,000  Level Washington Center
08:02PM 33.7706 -77.9775 North 408 470 35,000  Level Washington Center
08:03PM 33.8667 -77.9603 North 413 475 35,000  Level Washington Center
08:04PM 34.0069 -77.9367 North 418 481 35,000  Level Washington Center
08:05PM 34.1200 -77.9150 North 405 466 35,000  Level Washington Center
08:06PM 34.2353 -77.8956 North 405 466 35,000 -49 Level Washington Center
08:07PM 34.3397 -77.8783 North 416 479 34,900 -49 Descending Washington Center
08:08PM 34.4528 -77.8664 North 416 479 34,900 50 Level Washington Center
08:09PM 34.5636 -77.8542 North 406 467 35,000 50 Climbing Washington Center
08:10PM 34.6764 -77.8447 North 406 467 35,000 -50 Level Washington Center
08:11PM 34.7872 -77.8325 North 406 467 34,900  Descending Washington Center
08:12PM 34.8939 -77.8178 North 398 458 35,000 50 Climbing Washington Center
08:13PM 35.0006 -77.8056 North 386 444 35,000  Level Washington Center
08:14PM 35.1072 -77.7933 North 386 444 35,000  Level Washington Center
08:15PM 35.2181 -77.7811 North 393 452 35,000  Level Washington Center
08:16PM 35.3244 -77.7736 North 387 445 35,000  Level Washington Center
08:17PM 35.4333 -77.7614 North 387 445 35,000  Level Washington Center
08:18PM 35.5419 -77.7517 North 387 445 35,000  Level Washington Center
08:19PM 35.6508 -77.7367 North 387 445 35,000  Level Washington Center
08:20PM 35.7594 -77.7267 North 387 445 35,000  Level Washington Center
08:21PM 35.8681 -77.7142 North 387 445 35,000  Level Washington Center
08:22PM 35.9811 -77.6994 North 392 451 35,000  Level Washington Center
08:23PM 36.0925 -77.6561 17° North 398 458 35,000  Level Washington Center
08:24PM 36.2058 -77.6050 20° North 409 471 35,000  Level Washington Center
08:25PM 36.3172 -77.5589 18° North 421 484 35,000  Level Washington Center
08:26PM 36.4308 -77.5100 19° North 421 484 35,000  Level Washington Center
08:27PM 36.5400 -77.4636 19° North 416 479 35,000  Level Washington Center
08:28PM 36.6514 -77.4119 20° North 422 486 35,000  Level Washington Center
08:29PM 36.7647 -77.3653 18° North 422 486 35,000  Level Washington Center
08:30PM 36.8781 -77.3161 19° North 427 491 35,000  Level Washington Center
08:31PM 37.0019 -77.2614 19° North 427 491 35,000  Level Washington Center
08:32PM 37.1153 -77.2119 19° North 427 491 35,000  Level Washington Center
08:33PM 37.2264 -77.1619 20° North 427 491 35,000  Level Washington Center
08:34PM 37.3397 -77.1044 22° Northeast 427 491 35,000  Level Washington Center
08:35PM 37.4492 -77.0281 29° Northeast 445 512 35,000  Level Washington Center
08:36PM 37.5503 -76.9514 31° Northeast 462 532 35,000  Level Washington Center
08:37PM 37.6597 -76.8692 31° Northeast 467 537 35,000  Level Washington Center
08:38PM 37.7711 -76.7872 30° Northeast 467 537 35,000  Level Washington Center
08:39PM 37.8822 -76.7047 30° Northeast 467 537 35,000  Level Washington Center
08:40PM 37.9958 -76.6194 31° Northeast 467 537 35,000  Level Washington Center
08:41PM 38.1069 -76.5364 30° Northeast 467 537 35,000  Level Washington Center
08:42PM 38.2181 -76.4506 31° Northeast 467 537 35,000  Level Washington Center
08:43PM 38.3272 -76.3619 32° Northeast 467 537 35,000  Level Washington Center
08:44PM 38.4342 -76.2622 36° Northeast 467 537 35,000  Level Washington Center
08:45PM 38.5431 -76.1650 35° Northeast 472 543 35,000 -458 Level Washington Center
08:46PM 38.6539 -76.0622 36° Northeast 478 550 34,100 -1,664 Descending Washington Center
08:47PM 38.7647 -75.9617 35° Northeast 478 550 31,700 -2,777 Descending Washington Center
08:48PM 38.8775 -75.8556 36° Northeast 484 557 28,500 -2,350 Descending Washington Center
08:49PM 38.9842 -75.7519 37° Northeast 489 563 27,000 -1,361 Descending Washington Center
08:50PM 39.0925 -75.6503 36° Northeast 483 556 25,800 -1,488 Descending Washington Center
08:51PM 39.1947 -75.5514 37° Northeast 472 543 24,000 -950 Descending Washington Center
08:52PM 39.2989 -75.4603 34° Northeast 460 529 23,900 -1,017 Descending Washington Center
08:53PM 39.3986 -75.3686 35° Northeast 449 517 22,000 -2,000 Descending Washington Center
08:54PM 39.4944 -75.2850 34° Northeast 432 497 19,900 -1,835 Descending Washington Center
08:55PM 39.5878 -75.1983 36° Northeast 420 483 18,300 -1,426 Descending Washington Center
08:56PM 39.6772 -75.1144 36° Northeast 401 461 17,000 -1,412 Descending Washington Center
08:57PM 39.7747 -75.0300 34° Northeast 387 445 15,500 -1,361 Descending Washington Center
08:58PM 39.8514 -74.9617 34° Northeast 374 430 14,300 -1,279 Descending Washington Center
08:59PM 39.9383 -74.8744 38° Northeast 368 423 12,900 -1,350 Descending Washington Center
09:00PM 40.0067 -74.7761 48° Northeast 362 417 11,600 -1,235 Descending Washington Center
09:01PM 40.1000 -74.6500 46° Northeast 349 402 10,100 -701 Descending New York TRACON
09:02PM 40.1500 -74.5667 52° Northeast 330 380 10,000 -48 Descending New York TRACON
09:03PM 40.2167 -74.4833 44° Northeast 267 307 10,000 -143 Level New York TRACON
09:04PM 40.2667 -74.4167 45° Northeast 253 291 9,700 -750 Descending New York TRACON
09:05PM 40.3167 -74.3500 45° Northeast 246 283 8,500 -744 Descending New York TRACON
09:06PM 40.3692 -74.2856 43° Northeast 239 275 8,100 -316 Descending New York Center
09:07PM 40.4000 -74.2333 52° Northeast 237 273 7,900 -514 Descending New York TRACON
09:08PM 40.4333 -74.1500 62° Northeast 238 274 7,200 -762 Descending New York TRACON
09:09PM 40.4833 -74.1333 14° North 167 192 6,300 -1,048 Descending New York TRACON
09:10PM 40.5167 -74.1000 37° Northeast 173 199 5,000 -1,150 Descending New York TRACON
09:11PM 40.5667 -74.0500 37° Northeast 187 215 4,000 -1,200 Descending New York TRACON
09:12PM 40.6000 -74.0167 37° Northeast 179 206 2,600 -667 Descending New York TRACON
09:13PM 40.6500 -73.9833 27° Northeast 179 206 2,600  Level New York TRACON
09:14PM 40.6833 -73.9500 37° Northeast 161 185 2,600 -100 Level New York TRACON
09:15PM 40.7167 -73.9167 37° Northeast 168 193 2,400 -619 Descending New York TRACON
09:16PM 40.7333 -73.8500 72° East 164 189 1,300 -900 Descending New York TRACON
09:17PM 40.7500 -73.8333 37° Northeast 130 150 600 -700 Descending New York TRACON